This is the latest recevied weather packets stored in our database for station/object DG3RAP-11. If no packets are shown the sender has not sent any weather packets the latest 10 day(s).
| Time | Temp. | Humidity | Pressure | Rain* | Wind** | Luminosity | Snow |
|---|---|---|---|---|---|---|---|
| 1777617363 | 11.67° C | 45% | 1027.5 hPa | 0 mm | - | - | - |
| 1777616823 | 11.67° C | 44% | 1027.6 hPa | 0 mm | - | - | - |
| 1777616283 | 11.11° C | 47% | 1027.6 hPa | 0 mm | - | - | - |
| 1777615743 | 8.33° C | 54% | 1027.4 hPa | 0 mm | - | - | - |
| 1777615203 | 7.78° C | 54% | 1027.6 hPa | 0 mm | - | - | - |
| 1777614843 | 7.22° C | 54% | 1027.7 hPa | 0 mm | - | - | - |
| 1777614303 | 6.67° C | 56% | 1027.4 hPa | 0 mm | - | - | - |
| 1777613763 | 6.11° C | 57% | 1027.4 hPa | 0 mm | - | - | - |
| 1777613223 | 6.67° C | 56% | 1027.5 hPa | 0 mm | - | - | - |
| 1777612683 | 6.67° C | 54% | 1027.3 hPa | 0 mm | - | - | - |
| 1777612143 | 6.67° C | 53% | 1027.1 hPa | 0 mm | - | - | - |
| 1777611603 | 6.11° C | 54% | 1027.3 hPa | 0 mm | - | - | - |
| 1777611243 | 5.56° C | 54% | 1027.2 hPa | 0 mm | - | - | - |
| 1777610703 | 5° C | 56% | 1027.4 hPa | 0 mm | - | - | - |
| 1777610163 | 3.89° C | 59% | 1027.2 hPa | 0 mm | - | - | - |
| 1777609623 | 2.78° C | 64% | 1027.1 hPa | 0 mm | - | - | - |
| 1777609083 | 2.22° C | 65% | 1027.1 hPa | 0 mm | - | - | - |
| 1777608543 | 2.22° C | 65% | 1027.1 hPa | 0 mm | - | - | - |
| 1777608003 | 2.22° C | 65% | 1026.9 hPa | 0 mm | - | - | - |
| 1777607643 | 3.89° C | 59% | 1027 hPa | 0 mm | - | - | - |
| 1777607103 | 4.44° C | 56% | 1026.8 hPa | 0 mm | - | - | - |
| 1777606563 | 4.44° C | 57% | 1026.8 hPa | 0 mm | - | - | - |
| 1777606023 | 5° C | 54% | 1026.8 hPa | 0 mm | - | - | - |
| 1777605483 | 5° C | 53% | 1026.8 hPa | 0 mm | - | - | - |
| 1777604943 | 5° C | 53% | 1026.8 hPa | 0 mm | - | - | - |
* Rain latest hour (hover to see other rain measurements)
** Current wind speed in m/s (hover to see current wind gust speed)